Time;durP1;ratioP1;P1;durP2;ratioP2;P2;SDS_P1;SDS_P2;PMS_P1;PMS_P2;Temp;Humidity;BMP_temperature;BMP_pressure;BME280_temperature;BME280_humidity;BME280_pressure;Samples;Min_cycle;Max_cycle;Signal;HPM_P1;HPM_P2
2023/08/07 00:02:01;;;;;;;1.55;0.52;;;17.40;74.50;;;;;;2476768;55;20992;-70
2023/08/07 00:04:28;;;;;;;2.05;0.70;;;17.30;74.40;;;;;;2479120;55;21013;-69
2023/08/07 00:06:55;;;;;;;1.80;0.80;;;17.30;74.40;;;;;;2251161;56;20961;-67
2023/08/07 00:09:24;;;;;;;2.00;0.80;;;17.30;74.40;;;;;;2479048;55;21005;-68
2023/08/07 00:12:10;;;;;;;1.90;0.90;;;17.30;74.50;;;;;;2478185;55;21550;-67
2023/08/07 00:14:37;;;;;;;2.33;0.85;;;17.30;73.80;;;;;;2251753;56;20984;-67
2023/08/07 00:17:15;;;;;;;2.45;1.00;;;17.30;74.50;;;;;;2479326;55;20940;-69
2023/08/07 00:19:45;;;;;;;1.98;0.73;;;17.30;74.00;;;;;;2479763;55;20994;-66
2023/08/07 00:22:12;;;;;;;2.40;0.90;;;17.30;74.50;;;;;;2453092;55;21037;-67
2023/08/07 00:24:39;;;;;;;1.92;0.73;;;17.30;74.50;;;;;;2251924;56;21536;-66
2023/08/07 00:27:09;;;;;;;2.05;0.80;;;17.30;74.50;;;;;;2252190;56;21044;-67
2023/08/07 00:30:04;;;;;;;2.83;0.90;;;17.30;74.50;;;;;;2478866;55;21084;-68
2023/08/07 00:32:31;;;;;;;1.35;0.55;;;17.30;73.90;;;;;;2251534;56;21001;-69
2023/08/07 00:34:58;;;;;;;2.75;1.55;;;17.30;74.50;;;;;;2253914;56;21463;-70
2023/08/07 00:37:27;;;;;;;1.77;0.70;;;17.30;74.50;;;;;;2254649;56;21073;-67
2023/08/07 00:39:53;;;;;;;2.85;0.90;;;17.20;74.40;;;;;;2481238;55;21006;-68
2023/08/07 00:42:20;;;;;;;1.77;0.80;;;17.30;74.50;;;;;;2481168;55;20940;-69
2023/08/07 00:44:46;;;;;;;1.98;0.82;;;17.20;74.40;;;;;;2481377;55;20929;-67
2023/08/07 00:47:12;;;;;;;1.95;0.85;;;17.20;74.50;;;;;;2481340;55;20953;-68
2023/08/07 00:49:40;;;;;;;1.60;0.77;;;17.20;74.50;;;;;;2253692;56;22141;-68
2023/08/07 00:52:07;;;;;;;2.58;1.05;;;17.30;74.50;;;;;;2480933;55;21412;-68
2023/08/07 00:54:33;;;;;;;2.55;0.85;;;17.20;74.30;;;;;;2480629;55;21016;-67
2023/08/07 00:57:12;;;;;;;2.53;0.93;;;17.20;74.30;;;;;;2480583;55;20952;-67
2023/08/07 00:59:38;;;;;;;2.75;0.90;;;17.30;73.80;;;;;;2478491;55;20949;-69
2023/08/07 01:02:05;;;;;;;2.78;0.95;;;17.20;74.10;;;;;;2254350;56;20996;-71
2023/08/07 01:04:50;;;;;;;2.20;0.95;;;17.20;74.00;;;;;;2481210;55;21025;-67
2023/08/07 01:07:16;;;;;;;2.72;0.80;;;17.20;74.00;;;;;;2481006;55;21615;-67
2023/08/07 01:09:43;;;;;;;2.30;0.95;;;17.20;74.00;;;;;;2254048;56;20968;-71
2023/08/07 01:12:19;;;;;;;2.50;0.90;;;17.20;74.00;;;;;;2254945;56;21136;-67
2023/08/07 01:15:02;;;;;;;2.17;0.77;;;17.10;73.60;;;;;;2480585;55;20985;-68
2023/08/07 01:17:30;;;;;;;2.42;0.98;;;17.10;73.30;;;;;;2480631;55;20940;-67
2023/08/07 01:19:57;;;;;;;1.58;0.70;;;17.10;73.80;;;;;;2481167;55;21537;-68
2023/08/07 01:22:27;;;;;;;5.10;0.80;;;17.10;73.80;;;;;;2481255;55;20969;-67
2023/08/07 01:24:54;;;;;;;1.62;0.68;;;17.10;73.70;;;;;;2254447;56;20961;-68
2023/08/07 01:27:37;;;;;;;2.35;0.80;;;17.10;73.60;;;;;;2481312;55;21080;-69
2023/08/07 01:30:32;;;;;;;2.22;0.90;;;17.00;73.30;;;;;;2481156;55;21490;-67
2023/08/07 01:33:22;;;;;;;3.17;0.98;;;17.00;73.20;;;;;;2481560;55;20941;-68
2023/08/07 01:35:53;;;;;;;3.08;0.80;;;17.00;73.20;;;;;;2254886;56;21001;-69
2023/08/07 01:38:20;;;;;;;2.20;0.70;;;16.90;73.40;;;;;;2480737;55;20949;-69
2023/08/07 01:40:47;;;;;;;3.22;0.95;;;16.90;73.60;;;;;;2481380;55;21561;-68
2023/08/07 01:43:14;;;;;;;2.17;0.80;;;16.90;73.60;;;;;;2482761;55;20953;-69
2023/08/07 01:45:40;;;;;;;2.50;1.00;;;16.90;73.60;;;;;;2255789;56;20952;-68
2023/08/07 01:48:07;;;;;;;1.62;0.73;;;16.80;73.60;;;;;;2258922;56;21072;-69
2023/08/07 01:50:36;;;;;;;2.10;0.90;;;16.80;73.50;;;;;;2256368;56;21751;-69
2023/08/07 01:53:02;;;;;;;1.70;0.62;;;16.80;73.60;;;;;;2255791;56;21243;-67
2023/08/07 01:55:31;;;;;;;2.17;0.70;;;16.80;73.50;;;;;;2483170;55;20984;-68
2023/08/07 01:57:58;;;;;;;1.45;0.70;;;16.80;73.30;;;;;;2256053;56;20937;-67
2023/08/07 02:00:24;;;;;;;1.52;0.60;;;16.70;73.30;;;;;;2483602;55;20905;-68
2023/08/07 02:02:53;;;;;;;2.05;0.70;;;16.70;73.40;;;;;;2258509;56;21013;-69
2023/08/07 02:05:19;;;;;;;1.83;0.73;;;16.60;73.30;;;;;;2483308;55;21116;-68
2023/08/07 02:07:46;;;;;;;1.67;0.70;;;16.60;73.40;;;;;;2470251;55;20969;-67
2023/08/07 02:10:13;;;;;;;2.12;0.90;;;16.60;73.50;;;;;;2483530;55;21025;-68
2023/08/07 02:12:40;;;;;;;1.92;0.80;;;16.60;73.50;;;;;;2255665;56;20996;-67
2023/08/07 02:15:07;;;;;;;2.10;0.80;;;16.60;73.50;;;;;;2481112;55;20949;-68
2023/08/07 02:17:35;;;;;;;2.08;0.88;;;16.60;73.50;;;;;;2254807;56;20992;-67
2023/08/07 02:20:01;;;;;;;2.12;0.80;;;16.50;73.50;;;;;;2482583;55;21005;-69
2023/08/07 02:22:28;;;;;;;5.05;1.00;;;16.50;74.20;;;;;;2253909;56;20929;-67
2023/08/07 02:24:54;;;;;;;2.22;0.93;;;16.50;73.60;;;;;;2482270;55;21334;-67
2023/08/07 02:27:21;;;;;;;2.17;0.77;;;16.50;73.70;;;;;;2482343;55;21005;-67
2023/08/07 02:29:47;;;;;;;1.50;0.68;;;16.50;73.80;;;;;;2254892;56;20940;-70
2023/08/07 02:32:14;;;;;;;2.37;0.88;;;16.40;73.70;;;;;;2255959;56;21033;-68
2023/08/07 02:34:40;;;;;;;2.15;0.90;;;16.40;73.90;;;;;;2254333;56;21453;-67
2023/08/07 02:37:08;;;;;;;2.15;1.00;;;16.40;74.00;;;;;;2482546;55;20921;-68
2023/08/07 02:39:35;;;;;;;2.50;1.10;;;16.40;74.10;;;;;;2482258;55;21470;-68
2023/08/07 02:42:01;;;;;;;2.25;1.00;;;16.40;74.10;;;;;;2482483;55;20964;-69
2023/08/07 02:44:27;;;;;;;1.95;0.90;;;16.40;74.10;;;;;;2483088;55;20940;-69
2023/08/07 02:46:54;;;;;;;2.67;0.90;;;16.40;74.20;;;;;;2482892;55;21011;-68
2023/08/07 02:49:21;;;;;;;3.08;1.00;;;16.40;74.20;;;;;;2482685;55;20989;-69
2023/08/07 02:51:48;;;;;;;2.25;0.82;;;16.50;74.30;;;;;;2483650;55;21002;-69
2023/08/07 02:54:14;;;;;;;2.17;0.90;;;16.40;74.20;;;;;;2257706;56;21033;-68
2023/08/07 02:56:41;;;;;;;1.23;0.60;;;16.40;74.20;;;;;;2482695;55;21022;-69
2023/08/07 02:59:08;;;;;;;1.95;0.75;;;16.40;74.30;;;;;;2483349;55;20973;-71
2023/08/07 03:01:35;;;;;;;2.20;0.88;;;16.40;74.30;;;;;;2483296;55;21461;-68
2023/08/07 03:04:04;;;;;;;2.30;0.95;;;16.50;74.50;;;;;;2255634;56;21343;-69
2023/08/07 03:06:34;;;;;;;1.62;0.70;;;16.50;74.50;;;;;;2258775;56;20969;-69
2023/08/07 03:09:00;;;;;;;2.40;1.00;;;16.50;74.40;;;;;;2255306;56;20961;-69
2023/08/07 03:11:27;;;;;;;3.17;1.05;;;16.40;74.40;;;;;;2483480;55;20953;-68
2023/08/07 03:13:53;;;;;;;2.03;0.85;;;16.50;74.50;;;;;;2483194;55;20996;-68
2023/08/07 03:16:20;;;;;;;2.00;0.90;;;16.50;74.50;;;;;;2255475;56;21673;-68
2023/08/07 03:18:47;;;;;;;2.08;0.80;;;16.40;74.40;;;;;;2255469;56;21081;-68
2023/08/07 03:21:15;;;;;;;1.83;0.70;;;16.50;74.50;;;;;;2255308;56;21020;-67
2023/08/07 03:23:44;;;;;;;3.00;1.10;;;16.50;74.50;;;;;;2259207;56;21692;-68
2023/08/07 03:26:11;;;;;;;1.77;0.80;;;16.50;74.50;;;;;;2482252;55;20933;-68
2023/08/07 03:28:41;;;;;;;3.30;1.05;;;16.50;74.50;;;;;;2482987;55;20940;-70
2023/08/07 03:31:08;;;;;;;2.53;1.02;;;16.50;74.50;;;;;;2482276;55;20957;-67
2023/08/07 03:33:34;;;;;;;2.25;0.90;;;16.50;74.50;;;;;;2256152;56;20948;-68
2023/08/07 03:36:12;;;;;;;1.92;0.82;;;16.50;74.50;;;;;;2483446;55;21030;-68
2023/08/07 03:38:39;;;;;;;2.17;1.10;;;16.50;74.40;;;;;;2482770;55;20989;-68
2023/08/07 03:41:05;;;;;;;2.20;0.90;;;16.50;74.60;;;;;;2483510;55;20936;-68
2023/08/07 03:43:32;;;;;;;2.28;0.88;;;16.50;74.60;;;;;;2483473;55;21073;-67
2023/08/07 03:45:58;;;;;;;2.78;1.00;;;16.60;74.70;;;;;;2481642;55;21024;-70
2023/08/07 03:48:27;;;;;;;2.53;1.12;;;16.50;74.50;;;;;;2482832;55;21108;-71
2023/08/07 03:51:01;;;;;;;3.55;1.10;;;16.50;74.60;;;;;;2255248;56;20944;-69
2023/08/07 03:53:27;;;;;;;2.37;0.90;;;16.60;74.70;;;;;;2255651;56;20988;-67
2023/08/07 03:55:54;;;;;;;2.33;0.93;;;16.60;74.70;;;;;;2483122;55;21792;-68
2023/08/07 03:58:21;;;;;;;2.05;0.80;;;16.60;74.70;;;;;;2258522;56;21998;-69
2023/08/07 04:00:49;;;;;;;2.60;0.80;;;16.60;74.70;;;;;;2482713;55;21000;-68
2023/08/07 04:03:15;;;;;;;2.80;1.10;;;16.60;74.70;;;;;;2483350;55;21035;-68
2023/08/07 04:05:41;;;;;;;2.12;1.00;;;16.60;74.70;;;;;;2482847;55;20995;-69
2023/08/07 04:08:08;;;;;;;3.80;0.80;;;16.60;74.70;;;;;;2483660;55;20981;-68
2023/08/07 04:10:34;;;;;;;2.75;0.90;;;16.60;74.70;;;;;;2483638;55;21040;-69
2023/08/07 04:13:03;;;;;;;1.90;0.90;;;16.60;74.70;;;;;;2483388;55;20965;-68
2023/08/07 04:15:29;;;;;;;2.33;0.90;;;16.60;74.70;;;;;;2483503;55;20989;-71
2023/08/07 04:17:57;;;;;;;2.25;1.12;;;16.60;74.70;;;;;;2483481;55;20973;-70
2023/08/07 04:20:23;;;;;;;2.17;1.00;;;16.60;74.70;;;;;;2482962;55;21004;-70
2023/08/07 04:22:50;;;;;;;2.05;0.90;;;16.70;74.70;;;;;;2483281;55;20984;-68
2023/08/07 04:25:16;;;;;;;3.95;1.10;;;16.70;74.70;;;;;;2255773;56;20952;-70
2023/08/07 04:27:43;;;;;;;1.90;0.80;;;16.70;74.70;;;;;;2482546;55;20993;-68
2023/08/07 04:30:10;;;;;;;3.70;1.42;;;16.70;74.70;;;;;;2255776;56;20993;-68
2023/08/07 04:32:36;;;;;;;2.28;0.93;;;16.70;74.60;;;;;;2483508;55;21053;-67
2023/08/07 04:35:04;;;;;;;1.65;0.73;;;16.70;74.60;;;;;;2482719;55;20977;-68
2023/08/07 04:37:33;;;;;;;3.12;1.25;;;16.70;74.60;;;;;;2482963;55;21000;-68
2023/08/07 04:40:00;;;;;;;3.78;1.15;;;16.70;74.60;;;;;;2482898;55;20948;-69
2023/08/07 04:42:28;;;;;;;2.58;0.98;;;16.70;74.60;;;;;;2255834;56;20965;-67
2023/08/07 04:44:54;;;;;;;5.78;1.10;;;16.70;74.60;;;;;;2255847;56;21052;-68
2023/08/07 04:47:21;;;;;;;2.35;1.10;;;16.70;74.60;;;;;;2483286;55;20981;-68
2023/08/07 04:49:47;;;;;;;1.83;0.88;;;16.70;74.50;;;;;;2256175;56;21378;-68
2023/08/07 04:52:15;;;;;;;4.82;1.08;;;16.70;74.50;;;;;;2256270;56;21438;-71
2023/08/07 04:54:50;;;;;;;3.33;1.20;;;16.70;74.40;;;;;;2256158;56;20936;-67
2023/08/07 04:57:17;;;;;;;2.00;0.95;;;16.70;74.40;;;;;;2253205;56;20979;-68
2023/08/07 04:59:43;;;;;;;2.33;0.93;;;16.70;74.40;;;;;;2240404;56;20936;-68
2023/08/07 05:02:10;;;;;;;3.00;1.08;;;16.70;74.40;;;;;;2483334;55;21743;-69
2023/08/07 05:04:38;;;;;;;2.85;1.12;;;16.70;74.30;;;;;;2482977;55;21017;-68
2023/08/07 05:07:04;;;;;;;2.78;1.17;;;16.70;74.30;;;;;;2483368;55;21510;-67
2023/08/07 05:09:31;;;;;;;3.20;0.88;;;16.70;74.40;;;;;;2255526;56;20949;-68
2023/08/07 05:11:57;;;;;;;2.47;0.90;;;16.70;74.40;;;;;;2255966;56;21008;-68
2023/08/07 05:14:24;;;;;;;2.58;0.80;;;16.70;74.40;;;;;;2256045;56;21533;-68
2023/08/07 05:16:50;;;;;;;2.20;0.90;;;16.70;74.50;;;;;;2256014;56;21046;-68
2023/08/07 05:19:16;;;;;;;3.28;0.95;;;16.70;74.50;;;;;;2482813;55;20984;-69
2023/08/07 05:21:43;;;;;;;2.20;0.90;;;16.70;74.50;;;;;;2483233;55;20999;-70
2023/08/07 05:24:12;;;;;;;3.22;1.00;;;16.70;74.50;;;;;;2256303;56;21366;-71
2023/08/07 05:26:38;;;;;;;2.40;1.30;;;16.70;74.50;;;;;;2483472;55;21001;-67
2023/08/07 05:29:04;;;;;;;3.00;1.20;;;16.70;74.50;;;;;;2256129;56;21910;-68
2023/08/07 05:31:31;;;;;;;2.30;0.93;;;16.80;74.70;;;;;;2254705;56;21431;-69
2023/08/07 05:33:58;;;;;;;2.33;1.00;;;16.70;74.60;;;;;;2255485;56;21732;-68
2023/08/07 05:36:30;;;;;;;2.55;1.00;;;16.70;74.60;;;;;;2255420;56;21062;-68
2023/08/07 05:39:00;;;;;;;5.12;1.17;;;16.80;74.60;;;;;;2482985;55;21009;-69
2023/08/07 05:41:26;;;;;;;2.70;1.20;;;16.80;74.70;;;;;;2479009;55;21403;-68
2023/08/07 05:43:53;;;;;;;2.67;1.10;;;16.80;74.70;;;;;;2478586;55;20937;-68
2023/08/07 05:46:23;;;;;;;2.12;0.98;;;16.80;74.80;;;;;;2477141;55;20969;-66
2023/08/07 05:48:52;;;;;;;2.28;0.82;;;16.80;74.80;;;;;;2253530;56;22309;-69
2023/08/07 05:51:19;;;;;;;2.37;0.90;;;16.80;74.70;;;;;;2476824;55;20944;-70
2023/08/07 05:53:47;;;;;;;2.95;1.10;;;16.80;74.90;;;;;;2476706;55;20961;-68
2023/08/07 05:56:14;;;;;;;2.42;1.08;;;16.80;74.90;;;;;;2476069;55;20998;-68
2023/08/07 05:58:43;;;;;;;4.20;1.10;;;16.80;74.90;;;;;;2476600;55;21006;-67
2023/08/07 06:01:12;;;;;;;2.35;1.05;;;16.90;75.00;;;;;;2477370;55;21532;-67
2023/08/07 06:03:38;;;;;;;2.90;1.12;;;16.90;75.00;;;;;;2477421;55;21040;-67
2023/08/07 06:06:05;;;;;;;3.05;1.17;;;16.90;75.00;;;;;;2249896;56;21003;-69
2023/08/07 06:08:32;;;;;;;3.85;1.12;;;16.90;75.00;;;;;;2249898;56;21844;-69
2023/08/07 06:11:04;;;;;;;3.58;1.20;;;16.90;75.00;;;;;;2477430;55;20993;-68
2023/08/07 06:13:32;;;;;;;2.55;1.23;;;17.00;75.10;;;;;;2476051;55;22060;-67
2023/08/07 06:16:01;;;;;;;3.08;1.02;;;17.00;75.00;;;;;;2251526;56;21092;-71
2023/08/07 06:18:29;;;;;;;2.75;1.27;;;17.00;75.00;;;;;;2252096;56;21486;-69
2023/08/07 06:20:56;;;;;;;3.37;1.12;;;17.00;75.10;;;;;;2254342;56;21033;-68
2023/08/07 06:23:23;;;;;;;2.85;1.20;;;17.10;75.20;;;;;;2252406;56;20981;-69
2023/08/07 06:25:52;;;;;;;2.20;0.95;;;17.10;75.20;;;;;;2479411;55;21000;-68
2023/08/07 06:28:23;;;;;;;3.22;1.20;;;17.10;75.10;;;;;;2252241;56;21021;-68
2023/08/07 06:30:51;;;;;;;2.35;1.02;;;17.10;75.20;;;;;;2478943;55;20953;-69
2023/08/07 06:33:21;;;;;;;3.72;1.80;;;17.10;75.20;;;;;;2478423;55;20953;-68
2023/08/07 06:35:47;;;;;;;2.72;1.10;;;17.10;75.10;;;;;;2481479;55;21382;-68
2023/08/07 06:38:15;;;;;;;3.20;1.30;;;17.10;75.10;;;;;;2479690;55;21760;-70
2023/08/07 06:40:45;;;;;;;2.00;0.95;;;17.20;75.00;;;;;;2252869;56;20964;-67
2023/08/07 06:43:11;;;;;;;2.97;1.25;;;17.20;75.00;;;;;;2481514;55;20969;-70
2023/08/07 06:45:40;;;;;;;2.60;1.30;;;17.20;75.20;;;;;;2251575;56;21011;-70
2023/08/07 06:48:07;;;;;;;2.53;1.17;;;17.20;74.90;;;;;;2481424;55;20925;-68
2023/08/07 06:50:33;;;;;;;3.80;1.40;;;17.20;75.00;;;;;;2481350;55;21000;-71
2023/08/07 06:52:59;;;;;;;3.03;1.27;;;17.20;75.00;;;;;;2253858;56;20980;-68
2023/08/07 06:55:26;;;;;;;2.53;1.10;;;17.30;75.20;;;;;;2253773;56;20937;-71
2023/08/07 06:57:52;;;;;;;2.97;1.20;;;17.30;75.20;;;;;;2256422;56;21434;-68
2023/08/07 07:00:25;;;;;;;2.53;1.30;;;17.30;75.20;;;;;;2480599;55;21501;-67
2023/08/07 07:02:53;;;;;;;1.77;0.82;;;17.30;75.10;;;;;;2481536;55;20993;-68
2023/08/07 07:05:19;;;;;;;3.45;1.05;;;17.30;75.20;;;;;;2480998;55;21023;-67
2023/08/07 07:07:46;;;;;;;3.25;1.23;;;17.30;75.20;;;;;;2252492;56;21016;-68
2023/08/07 07:10:13;;;;;;;2.30;1.20;;;17.40;75.30;;;;;;2478878;55;20944;-67
2023/08/07 07:12:39;;;;;;;3.28;1.27;;;17.40;75.40;;;;;;2254255;56;20969;-70
2023/08/07 07:15:06;;;;;;;2.87;1.10;;;17.40;75.40;;;;;;2252088;56;20945;-69
2023/08/07 07:17:33;;;;;;;2.67;1.20;;;17.50;75.50;;;;;;2252076;56;21074;-68
2023/08/07 07:20:00;;;;;;;3.55;1.23;;;17.50;76.20;;;;;;2252600;56;21961;-66
2023/08/07 07:22:28;;;;;;;2.42;1.10;;;17.50;75.50;;;;;;2252019;56;20969;-67
2023/08/07 07:24:57;;;;;;;2.75;1.20;;;17.60;75.60;;;;;;2479450;55;21724;-66
2023/08/07 07:27:29;;;;;;;3.53;1.35;;;17.60;75.40;;;;;;2477804;55;20984;-68
2023/08/07 07:29:55;;;;;;;2.90;1.40;;;17.60;75.40;;;;;;2479885;55;20977;-68
2023/08/07 07:32:23;;;;;;;9.07;4.10;;;17.70;75.50;;;;;;2476971;55;21923;-67
2023/08/07 07:34:49;;;;;;;7.75;3.78;;;17.70;75.50;;;;;;2474981;55;20949;-68
2023/08/07 07:37:17;;;;;;;5.75;3.33;;;17.70;75.30;;;;;;2474014;55;20942;-67
2023/08/07 07:39:43;;;;;;;4.32;2.28;;;17.80;75.20;;;;;;2477162;55;21133;-71
2023/08/07 07:42:11;;;;;;;3.90;1.70;;;17.80;75.00;;;;;;2478095;55;21787;-67
2023/08/07 07:44:40;;;;;;;3.00;1.60;;;17.80;75.00;;;;;;2478824;55;20955;-67
2023/08/07 07:47:07;;;;;;;2.90;1.20;;;17.90;75.00;;;;;;2252015;56;20996;-68
2023/08/07 07:49:36;;;;;;;3.25;1.08;;;17.90;75.20;;;;;;2478125;55;20988;-67
2023/08/07 07:52:03;;;;;;;4.32;1.30;;;17.90;75.10;;;;;;2478158;55;21449;-67
2023/08/07 07:54:30;;;;;;;2.72;1.20;;;17.90;74.90;;;;;;2251650;56;21958;-66
2023/08/07 07:56:56;;;;;;;3.17;1.20;;;17.90;75.00;;;;;;2478421;55;20973;-69
2023/08/07 07:59:23;;;;;;;3.20;1.15;;;17.90;74.90;;;;;;2479447;55;21008;-67
2023/08/07 08:01:49;;;;;;;2.60;1.20;;;18.00;75.00;;;;;;2480870;55;21025;-69
2023/08/07 08:04:15;;;;;;;3.90;1.10;;;18.00;74.90;;;;;;2255852;56;20992;-67
2023/08/07 08:06:43;;;;;;;2.50;1.10;;;18.00;74.90;;;;;;2252889;56;21004;-67
2023/08/07 08:09:09;;;;;;;3.45;1.27;;;18.10;75.00;;;;;;2479969;55;21761;-67
2023/08/07 08:11:43;;;;;;;2.95;1.35;;;18.10;75.00;;;;;;2479481;55;20961;-68
2023/08/07 08:14:16;;;;;;;3.15;1.30;;;18.10;74.90;;;;;;2251203;56;20980;-69
2023/08/07 08:16:44;;;;;;;3.75;1.10;;;18.10;75.00;;;;;;2478450;55;21327;-69
2023/08/07 08:19:11;;;;;;;2.22;1.05;;;18.10;75.20;;;;;;2251258;56;21962;-68
2023/08/07 08:21:37;;;;;;;2.60;1.17;;;18.20;75.50;;;;;;2472507;55;21022;-66
2023/08/07 08:24:05;;;;;;;3.83;1.25;;;18.30;75.70;;;;;;2245323;56;21622;-66
2023/08/07 08:26:32;;;;;;;2.92;1.20;;;18.30;75.70;;;;;;2225273;57;21469;-67
2023/08/07 08:28:58;;;;;;;2.67;1.20;;;18.30;75.60;;;;;;2463338;55;20949;-68
2023/08/07 08:31:28;;;;;;;2.85;1.20;;;18.40;75.60;;;;;;2463705;55;20932;-70
2023/08/07 08:33:57;;;;;;;2.30;1.05;;;18.40;75.60;;;;;;2238340;56;20961;-68
2023/08/07 08:36:34;;;;;;;2.53;1.02;;;18.50;75.60;;;;;;2237040;56;21497;-68
2023/08/07 08:39:11;;;;;;;2.40;1.12;;;18.50;75.60;;;;;;2461902;55;21489;-69
2023/08/07 08:41:38;;;;;;;2.10;0.98;;;18.60;74.90;;;;;;2240680;56;20949;-69
2023/08/07 08:44:04;;;;;;;2.40;1.20;;;18.60;75.50;;;;;;2241479;56;21877;-68
2023/08/07 08:46:32;;;;;;;2.72;1.10;;;18.70;75.80;;;;;;2240171;56;20940;-66
2023/08/07 08:49:01;;;;;;;2.45;1.10;;;18.70;75.70;;;;;;2465844;55;20937;-68
2023/08/07 08:51:28;;;;;;;2.20;0.90;;;18.80;75.70;;;;;;2467433;55;20944;-67
2023/08/07 08:53:56;;;;;;;2.42;1.15;;;18.80;75.70;;;;;;2244071;56;20984;-68
2023/08/07 08:56:23;;;;;;;2.33;1.08;;;18.90;75.60;;;;;;2240455;56;20957;-69
2023/08/07 08:58:52;;;;;;;3.15;1.40;;;18.90;75.50;;;;;;2465070;55;21051;-70
2023/08/07 09:01:27;;;;;;;3.03;0.98;;;19.00;75.30;;;;;;2463072;55;20973;-69
2023/08/07 09:03:54;;;;;;;3.50;1.10;;;19.00;74.90;;;;;;2461062;55;21067;-68
2023/08/07 09:06:21;;;;;;;2.22;0.93;;;19.10;75.60;;;;;;2459605;55;21966;-67
2023/08/07 09:08:49;;;;;;;2.58;1.10;;;19.10;75.40;;;;;;2457538;55;20968;-68
2023/08/07 09:11:19;;;;;;;2.37;0.93;;;19.20;75.40;;;;;;2448310;55;21020;-70
2023/08/07 09:13:48;;;;;;;3.65;1.10;;;19.20;75.30;;;;;;2437502;55;21758;-70
2023/08/07 09:16:28;;;;;;;2.55;1.10;;;19.20;75.20;;;;;;2205380;56;21547;-67
2023/08/07 09:19:06;;;;;;;2.90;0.95;;;19.30;75.30;;;;;;2420765;55;21036;-67
2023/08/07 09:21:37;;;;;;;2.33;1.20;;;19.40;75.30;;;;;;2387530;55;22018;-71
2023/08/07 09:24:29;;;;;;;2.53;1.20;;;19.40;75.10;;;;;;2386572;55;21144;-70
2023/08/07 09:27:29;;;;;;;2.25;1.02;;;19.40;74.80;;;;;;2183967;56;21864;-70
2023/08/07 09:30:31;;;;;;;2.25;1.10;;;19.50;74.30;;;;;;2182315;56;21523;-71
2023/08/07 09:34:13;;;;;;;2.00;0.85;;;19.60;74.10;;;;;;2389523;55;22055;-70
2023/08/07 09:37:58;;;;;;;2.05;0.88;;;19.60;73.60;;;;;;2405690;55;21261;-70
2023/08/07 09:42:39;;;;;;;3.10;1.17;;;19.70;72.90;;;;;;2362575;55;22358;-69
2023/08/07 09:46:38;;;;;;;2.53;0.90;;;19.80;72.70;;;;;;2415197;55;20981;-69
2023/08/07 09:51:09;;;;;;;;;;;;;;;;;;;;;
2023/08/07 09:59:00;;;;;;;;;;;;;;;;;;;;;
2023/08/07 10:03:22;;;;;;;;;;;;;;;;;;;;;
2023/08/07 10:07:40;;;;;;;;;;;;;;;;;;;;;
2023/08/07 10:12:51;;;;;;;1.87;0.80;;;19.90;72.00;;;;;;2436641;55;22187;-67
2023/08/07 10:23:18;;;;;;;3.53;0.88;;;20.00;72.10;;;;;;2448291;55;20969;-68
2023/08/07 10:27:11;;;;;;;1.65;0.80;;;20.10;72.00;;;;;;2132531;57;21921;-68
2023/08/07 10:29:50;;;;;;;1.75;0.88;;;20.20;71.50;;;;;;2358848;55;21644;-67
2023/08/07 10:32:23;;;;;;;2.03;0.77;;;20.30;74.00;;;;;;2213365;56;22040;-67
2023/08/07 10:34:54;;;;;;;2.42;0.98;;;20.20;73.20;;;;;;2234746;56;21016;-67
2023/08/07 10:37:42;;;;;;;2.03;0.90;;;20.20;72.60;;;;;;2252327;56;20960;-68
2023/08/07 10:40:12;;;;;;;3.12;1.10;;;20.30;72.00;;;;;;2252804;56;20957;-68
2023/08/07 10:44:32;;;;;;;2.17;0.95;;;20.30;73.10;;;;;;2254459;56;22078;-68
2023/08/07 10:47:00;;;;;;;2.20;1.10;;;20.40;71.40;;;;;;2254791;56;21116;-68
2023/08/07 10:49:32;;;;;;;2.60;1.17;;;20.40;73.30;;;;;;2482316;55;20925;-70
2023/08/07 10:52:24;;;;;;;2.60;1.10;;;20.40;72.50;;;;;;2483220;55;21013;-68
2023/08/07 10:54:50;;;;;;;1.80;0.90;;;20.40;72.50;;;;;;2482045;55;21029;-69
2023/08/07 10:57:17;;;;;;;1.83;0.98;;;20.50;72.90;;;;;;2142863;55;8230837;-71
2023/08/07 11:00:05;;;;;;;2.42;1.05;;;20.50;72.80;;;;;;2234081;56;21760;-70
2023/08/07 11:02:39;;;;;;;2.15;1.10;;;20.50;71.10;;;;;;2457343;55;21042;-72
2023/08/07 11:05:06;;;;;;;2.20;1.00;;;20.50;72.30;;;;;;2456531;55;20954;-72
2023/08/07 11:07:33;;;;;;;2.58;1.00;;;20.50;72.80;;;;;;2216060;56;20985;-71
2023/08/07 11:09:59;;;;;;;2.42;1.20;;;20.60;72.80;;;;;;2234960;56;21121;-78
2023/08/07 11:12:26;;;;;;;1.87;0.90;;;20.60;72.80;;;;;;2457410;55;21106;-69
2023/08/07 11:14:56;;;;;;;2.37;1.20;;;20.60;72.80;;;;;;2234638;56;21733;-70
2023/08/07 11:17:26;;;;;;;2.90;1.20;;;20.70;72.80;;;;;;2234810;56;21022;-67
2023/08/07 11:19:54;;;;;;;2.45;1.08;;;20.70;72.30;;;;;;2457494;55;21904;-71
2023/08/07 11:22:20;;;;;;;3.12;1.15;;;20.70;72.80;;;;;;2458316;55;20953;-70
2023/08/07 11:24:47;;;;;;;2.10;1.00;;;20.80;72.90;;;;;;2438586;55;20937;-70
2023/08/07 11:27:18;;;;;;;3.83;1.00;;;20.80;72.90;;;;;;2230584;56;20981;-71
2023/08/07 11:29:48;;;;;;;1.77;0.80;;;20.90;72.80;;;;;;2222027;56;21044;-70
2023/08/07 11:32:17;;;;;;;4.25;1.10;;;20.90;72.70;;;;;;2452416;55;21912;-70
2023/08/07 11:34:49;;;;;;;2.95;1.30;;;21.00;73.20;;;;;;2432057;56;21044;-68
2023/08/07 11:37:16;;;;;;;2.40;1.15;;;21.00;72.40;;;;;;2219712;57;20993;-67
2023/08/07 11:39:43;;;;;;;1.95;1.00;;;21.00;72.90;;;;;;2235928;56;21005;-73
2023/08/07 11:42:10;;;;;;;1.50;0.77;;;21.10;73.10;;;;;;2235957;56;20941;-69
2023/08/07 11:44:37;;;;;;;2.17;0.90;;;21.10;73.20;;;;;;2235267;56;20966;-68
2023/08/07 11:47:04;;;;;;;3.35;1.20;;;21.20;73.10;;;;;;2458054;55;21034;-69
2023/08/07 11:49:32;;;;;;;2.20;0.98;;;21.30;72.90;;;;;;2457896;55;22015;-69
2023/08/07 11:51:59;;;;;;;2.35;0.90;;;21.30;72.70;;;;;;2235495;56;21045;-70
2023/08/07 11:54:27;;;;;;;4.70;1.12;;;21.30;72.90;;;;;;2235673;56;21356;-69
2023/08/07 11:56:54;;;;;;;2.15;0.98;;;21.40;73.10;;;;;;2458853;55;21028;-69
2023/08/07 11:59:21;;;;;;;3.00;1.02;;;21.40;73.10;;;;;;2235383;56;21513;-70
2023/08/07 12:01:48;;;;;;;2.33;1.05;;;21.50;73.40;;;;;;2438054;55;21734;-69
2023/08/07 12:04:14;;;;;;;2.28;0.80;;;21.50;73.50;;;;;;2231994;56;21052;-70
2023/08/07 12:06:53;;;;;;;3.05;1.10;;;21.60;73.70;;;;;;2225054;57;21431;-71
2023/08/07 12:09:21;;;;;;;2.25;1.02;;;21.70;71.90;;;;;;2447197;55;20957;-70
2023/08/07 12:11:47;;;;;;;2.35;0.80;;;21.70;73.40;;;;;;2458327;55;20941;-70
2023/08/07 12:14:16;;;;;;;2.67;1.00;;;21.80;73.30;;;;;;2458568;55;20978;-70
2023/08/07 12:16:45;;;;;;;3.10;0.90;;;21.80;72.80;;;;;;2235261;56;21477;-68
2023/08/07 12:19:12;;;;;;;2.50;1.00;;;21.90;73.10;;;;;;2433446;56;21037;-69
2023/08/07 12:21:41;;;;;;;2.70;0.82;;;21.90;73.30;;;;;;2458564;55;20985;-67
2023/08/07 12:24:24;;;;;;;1.52;0.80;;;22.00;72.80;;;;;;2459002;55;21002;-67
2023/08/07 12:26:52;;;;;;;2.05;0.82;;;22.10;71.60;;;;;;2457586;55;20965;-69
2023/08/07 12:29:18;;;;;;;1.77;0.80;;;22.10;73.30;;;;;;2214392;56;20951;-67
2023/08/07 12:31:45;;;;;;;1.70;0.80;;;22.10;73.20;;;;;;2459036;55;21526;-69
2023/08/07 12:34:46;;;;;;;2.62;0.90;;;22.20;73.30;;;;;;2459103;55;20989;-70
2023/08/07 12:37:15;;;;;;;2.37;0.80;;;22.20;71.30;;;;;;2459141;55;21083;-67
2023/08/07 12:39:42;;;;;;;1.52;0.68;;;22.30;73.30;;;;;;2433221;56;21021;-68
2023/08/07 12:42:11;;;;;;;1.55;0.75;;;22.30;73.20;;;;;;2458318;55;21001;-71
2023/08/07 12:44:43;;;;;;;1.80;0.73;;;22.30;73.30;;;;;;2441205;55;20953;-69
2023/08/07 12:47:09;;;;;;;2.08;0.88;;;22.40;73.60;;;;;;2226939;56;21061;-67
2023/08/07 12:49:36;;;;;;;1.90;0.80;;;22.40;73.60;;;;;;2457557;55;21049;-69
2023/08/07 12:52:04;;;;;;;2.17;0.93;;;22.50;73.70;;;;;;2234511;56;21486;-68
2023/08/07 12:54:34;;;;;;;2.25;1.00;;;22.50;73.50;;;;;;2458288;55;20981;-68
2023/08/07 12:57:00;;;;;;;1.90;0.80;;;22.60;73.40;;;;;;2234783;56;20965;-69
2023/08/07 12:59:27;;;;;;;2.42;1.05;;;22.60;73.40;;;;;;2455415;55;20948;-69
2023/08/07 13:01:53;;;;;;;1.75;0.65;;;22.70;73.50;;;;;;2229419;56;21210;-68
2023/08/07 13:04:21;;;;;;;1.35;0.68;;;22.70;73.30;;;;;;2454297;55;20974;-70
2023/08/07 13:06:49;;;;;;;1.52;0.70;;;22.70;73.20;;;;;;2426353;56;21039;-69
2023/08/07 13:09:16;;;;;;;1.62;0.80;;;22.80;73.10;;;;;;2451336;55;21049;-71
2023/08/07 13:11:43;;;;;;;1.90;0.88;;;22.90;72.90;;;;;;2221061;56;21063;-69
2023/08/07 13:14:13;;;;;;;1.83;0.80;;;22.90;72.80;;;;;;2411894;56;21459;-66
2023/08/07 13:16:40;;;;;;;2.10;0.80;;;22.90;72.60;;;;;;2218808;56;21131;-67
2023/08/07 13:19:13;;;;;;;2.03;0.85;;;22.90;72.30;;;;;;2220260;56;20977;-67
2023/08/07 13:21:47;;;;;;;1.87;0.90;;;22.90;72.20;;;;;;2413359;55;21563;-71
2023/08/07 13:24:26;;;;;;;3.30;0.93;;;22.90;71.50;;;;;;2392430;55;20938;-68
2023/08/07 13:27:07;;;;;;;2.12;0.82;;;22.90;71.30;;;;;;2169002;56;20953;-66
2023/08/07 13:29:47;;;;;;;1.73;0.77;;;23.00;71.20;;;;;;2384687;55;21587;-68
2023/08/07 13:32:20;;;;;;;2.45;1.00;;;22.90;71.40;;;;;;2380652;55;21398;-68